Time;durP1;ratioP1;P1;durP2;ratioP2;P2;SDS_P1;SDS_P2;PMS_P1;PMS_P2;Temp;Humidity;BMP_temperature;BMP_pressure;BME280_temperature;BME280_humidity;BME280_pressure;Samples;Min_cycle;Max_cycle;Signal;HPM_P1;HPM_P2
2021/11/15 00:00:30;;;;;;;15.00;10.33;;;10.40;99.90;;;;;;5014859;28;20215;-66
2021/11/15 00:02:58;;;;;;;17.57;10.83;;;10.40;99.90;;;;;;5016014;28;20219;-65
2021/11/15 00:05:26;;;;;;;17.63;11.63;;;10.30;99.90;;;;;;5016532;28;20265;-65
2021/11/15 00:07:53;;;;;;;17.93;10.83;;;10.30;99.90;;;;;;5015724;28;20207;-65
2021/11/15 00:10:20;;;;;;;16.37;11.07;;;10.30;99.90;;;;;;5014967;28;20207;-66
2021/11/15 00:12:50;;;;;;;17.13;10.63;;;10.20;99.90;;;;;;5014707;28;20231;-65
2021/11/15 00:15:18;;;;;;;18.27;11.40;;;10.20;99.90;;;;;;5014946;28;20215;-65
2021/11/15 00:17:45;;;;;;;16.70;10.93;;;10.20;99.90;;;;;;5014550;28;20211;-65
2021/11/15 00:20:12;;;;;;;16.67;10.80;;;10.20;99.90;;;;;;5014775;28;20211;-65
2021/11/15 00:22:41;;;;;;;17.00;10.30;;;10.10;99.90;;;;;;5014784;28;20249;-65
2021/11/15 00:25:09;;;;;;;15.03;10.57;;;10.10;99.90;;;;;;5014598;28;20256;-66
2021/11/15 00:27:35;;;;;;;15.47;11.07;;;10.20;99.90;;;;;;5014217;28;20217;-67
2021/11/15 00:30:03;;;;;;;15.60;10.57;;;10.20;99.90;;;;;;5014453;28;20238;-65
2021/11/15 00:32:30;;;;;;;16.73;9.93;;;10.20;99.90;;;;;;5014251;28;20230;-67
2021/11/15 00:34:57;;;;;;;16.73;10.97;;;10.10;99.90;;;;;;5014014;28;20207;-65
2021/11/15 00:37:23;;;;;;;14.03;9.73;;;10.10;99.90;;;;;;5014372;28;20203;-67
2021/11/15 00:39:51;;;;;;;16.33;10.37;;;10.10;99.90;;;;;;5014024;28;20685;-65
2021/11/15 00:42:18;;;;;;;15.23;10.30;;;10.20;99.90;;;;;;5013791;28;20231;-65
2021/11/15 00:44:45;;;;;;;15.57;10.63;;;10.20;99.90;;;;;;5014196;28;20214;-65
2021/11/15 00:47:12;;;;;;;14.87;10.03;;;10.20;99.90;;;;;;5014281;28;20207;-65
2021/11/15 00:49:39;;;;;;;17.83;10.60;;;10.20;99.90;;;;;;5013693;28;20211;-65
2021/11/15 00:52:06;;;;;;;14.50;10.43;;;10.20;99.90;;;;;;5013983;28;20272;-65
2021/11/15 00:54:34;;;;;;;15.23;10.43;;;10.30;99.90;;;;;;5013921;28;20269;-64
2021/11/15 00:57:04;;;;;;;14.90;10.73;;;10.30;99.90;;;;;;5014132;28;20240;-65
2021/11/15 00:59:32;;;;;;;16.17;11.17;;;10.30;99.90;;;;;;5013751;28;20277;-66
2021/11/15 01:01:59;;;;;;;15.23;10.70;;;10.40;99.90;;;;;;5013858;28;20230;-64
2021/11/15 01:04:26;;;;;;;15.27;10.33;;;10.30;99.90;;;;;;5013599;28;20235;-65
2021/11/15 01:06:54;;;;;;;14.13;10.27;;;10.40;99.90;;;;;;5013555;28;20242;-65
2021/11/15 01:09:21;;;;;;;15.67;10.80;;;10.40;99.90;;;;;;5013966;28;20207;-65
2021/11/15 01:11:48;;;;;;;19.07;9.93;;;10.30;99.90;;;;;;5013610;28;20227;-65
2021/11/15 01:14:16;;;;;;;15.50;10.60;;;10.20;99.90;;;;;;5013794;28;20218;-65
2021/11/15 01:16:43;;;;;;;20.13;10.93;;;10.20;99.90;;;;;;5013949;28;20211;-65
2021/11/15 01:19:11;;;;;;;16.90;10.93;;;10.30;99.90;;;;;;5013419;28;20211;-64
2021/11/15 01:21:37;;;;;;;17.90;11.10;;;10.30;99.90;;;;;;5013662;28;20227;-67
2021/11/15 01:24:05;;;;;;;14.63;10.10;;;10.20;99.90;;;;;;5013211;28;20207;-63
2021/11/15 01:26:31;;;;;;;16.20;10.90;;;10.20;99.90;;;;;;5013417;28;20214;-67
2021/11/15 01:28:58;;;;;;;14.37;10.37;;;10.10;99.90;;;;;;5013466;28;20215;-64
2021/11/15 01:31:27;;;;;;;15.10;9.80;;;10.10;99.90;;;;;;5013263;28;20322;-67
2021/11/15 01:33:53;;;;;;;13.43;9.37;;;10.00;99.90;;;;;;5012847;28;20227;-64
2021/11/15 01:36:20;;;;;;;16.17;10.20;;;9.90;99.90;;;;;;5012783;28;20294;-64
2021/11/15 01:38:47;;;;;;;16.70;10.57;;;9.90;99.90;;;;;;5013552;28;20217;-63
2021/11/15 01:41:14;;;;;;;15.13;10.10;;;9.90;99.90;;;;;;5013435;28;20403;-64
2021/11/15 01:43:41;;;;;;;14.10;10.20;;;9.90;99.90;;;;;;5012863;28;20213;-64
2021/11/15 01:46:08;;;;;;;15.70;10.50;;;9.90;99.90;;;;;;5012762;28;20233;-67
2021/11/15 01:48:36;;;;;;;15.87;9.67;;;9.90;99.90;;;;;;5012719;28;20211;-63
2021/11/15 01:51:03;;;;;;;14.70;10.53;;;9.80;99.90;;;;;;5012939;28;20244;-63
2021/11/15 01:53:29;;;;;;;16.20;10.73;;;9.70;99.90;;;;;;5012650;28;20237;-63
2021/11/15 01:55:56;;;;;;;16.63;11.00;;;9.60;99.90;;;;;;5012349;28;20207;-62
2021/11/15 01:58:23;;;;;;;16.37;10.77;;;9.60;99.90;;;;;;5012486;28;20210;-64
2021/11/15 02:00:52;;;;;;;16.73;11.13;;;9.60;99.90;;;;;;5012737;28;20257;-63
2021/11/15 02:03:20;;;;;;;16.53;10.93;;;9.60;99.90;;;;;;5013136;28;20247;-63
2021/11/15 02:05:49;;;;;;;15.93;10.10;;;9.50;99.90;;;;;;5012516;28;20207;-62
2021/11/15 02:08:16;;;;;;;16.83;11.50;;;9.60;99.90;;;;;;5013020;28;20215;-62
2021/11/15 02:10:44;;;;;;;15.50;10.10;;;9.50;99.90;;;;;;5012610;28;20210;-63
2021/11/15 02:13:14;;;;;;;16.13;10.37;;;9.60;99.90;;;;;;5012545;28;20222;-63
2021/11/15 02:15:41;;;;;;;18.80;11.77;;;9.60;99.90;;;;;;5012359;28;20218;-63
2021/11/15 02:18:08;;;;;;;17.97;11.53;;;9.60;99.90;;;;;;5012008;28;20202;-62
2021/11/15 02:20:49;;;;;;;16.60;10.63;;;9.60;99.90;;;;;;5012370;28;20211;-63
2021/11/15 02:23:17;;;;;;;15.73;10.93;;;9.60;99.90;;;;;;5012439;28;20694;-62
2021/11/15 02:25:45;;;;;;;16.03;10.33;;;9.60;99.90;;;;;;5012095;28;20217;-62
2021/11/15 02:28:12;;;;;;;15.10;10.30;;;9.60;99.90;;;;;;5012591;28;20233;-62
2021/11/15 02:30:39;;;;;;;15.13;10.63;;;9.60;99.90;;;;;;5012410;28;20203;-62
2021/11/15 02:33:06;;;;;;;14.90;10.20;;;9.60;99.90;;;;;;5012086;28;20237;-62
2021/11/15 02:35:33;;;;;;;16.10;10.53;;;9.60;99.90;;;;;;5012132;28;20210;-63
2021/11/15 02:38:01;;;;;;;14.43;9.70;;;9.60;99.90;;;;;;5013420;28;20217;-64
2021/11/15 02:40:28;;;;;;;15.20;9.23;;;9.50;99.90;;;;;;5012455;28;20306;-62
2021/11/15 02:42:57;;;;;;;15.37;9.67;;;9.40;99.90;;;;;;5012537;28;20230;-62
2021/11/15 02:45:25;;;;;;;12.10;8.67;;;9.40;99.90;;;;;;5012189;28;20206;-63
2021/11/15 02:47:52;;;;;;;14.10;9.37;;;9.40;99.90;;;;;;5012022;28;20214;-62
2021/11/15 02:50:21;;;;;;;16.27;10.00;;;9.40;99.90;;;;;;5012319;28;20210;-62
2021/11/15 02:52:50;;;;;;;15.53;10.47;;;9.40;99.90;;;;;;5011691;28;20231;-63
2021/11/15 02:55:18;;;;;;;13.73;9.20;;;9.50;99.90;;;;;;5011991;28;20211;-62
2021/11/15 02:57:45;;;;;;;20.53;9.77;;;9.50;99.90;;;;;;5012148;28;20210;-62
2021/11/15 03:00:26;;;;;;;12.23;9.10;;;9.50;99.90;;;;;;5012089;28;20203;-63
2021/11/15 03:02:53;;;;;;;14.57;9.43;;;9.50;99.90;;;;;;5011679;28;20706;-63
2021/11/15 03:05:24;;;;;;;13.57;9.60;;;9.40;99.90;;;;;;5012325;28;20563;-62
2021/11/15 03:07:52;;;;;;;12.93;9.43;;;9.40;99.90;;;;;;5012546;28;20656;-63
2021/11/15 03:10:20;;;;;;;14.03;9.50;;;9.40;99.90;;;;;;5012115;28;20606;-62
2021/11/15 03:12:47;;;;;;;13.70;9.63;;;9.40;99.90;;;;;;5011578;28;20232;-63
2021/11/15 03:15:22;;;;;;;14.30;9.30;;;9.40;99.90;;;;;;5011541;28;20241;-62
2021/11/15 03:17:54;;;;;;;12.20;8.90;;;9.30;99.90;;;;;;5011478;28;20297;-63
2021/11/15 03:20:21;;;;;;;13.90;9.57;;;9.20;99.90;;;;;;5011330;28;20265;-63
2021/11/15 03:22:48;;;;;;;12.67;9.03;;;9.20;99.90;;;;;;5011628;28;20230;-63
2021/11/15 03:25:15;;;;;;;13.00;8.93;;;9.20;99.90;;;;;;5011413;28;20613;-63
2021/11/15 03:27:43;;;;;;;12.57;8.87;;;9.10;99.90;;;;;;5011931;28;20214;-62
2021/11/15 03:30:11;;;;;;;14.23;10.07;;;9.10;99.90;;;;;;5011977;28;20214;-63
2021/11/15 03:32:43;;;;;;;13.90;9.30;;;9.20;99.90;;;;;;5011647;28;20285;-63
2021/11/15 03:35:10;;;;;;;14.97;9.50;;;9.20;99.90;;;;;;5011958;28;20222;-62
2021/11/15 03:37:37;;;;;;;14.83;9.60;;;9.10;99.90;;;;;;5012696;28;20239;-62
2021/11/15 03:40:08;;;;;;;13.90;9.03;;;9.20;99.90;;;;;;5012001;28;20218;-63
2021/11/15 03:42:35;;;;;;;14.43;9.90;;;9.20;99.90;;;;;;5011753;28;20235;-63
2021/11/15 03:45:04;;;;;;;15.10;9.07;;;9.20;99.90;;;;;;5011816;28;20214;-62
2021/11/15 03:47:31;;;;;;;11.90;8.67;;;9.20;99.90;;;;;;5012008;28;20294;-63
2021/11/15 03:49:58;;;;;;;14.40;10.43;;;9.30;99.90;;;;;;5011747;28;20218;-63
2021/11/15 03:52:25;;;;;;;14.17;8.53;;;9.40;99.90;;;;;;5011568;28;20669;-62
2021/11/15 03:54:51;;;;;;;11.90;8.13;;;9.40;99.90;;;;;;5011419;28;20212;-62
2021/11/15 03:57:18;;;;;;;11.73;9.00;;;9.40;99.90;;;;;;5011484;28;20258;-63
2021/11/15 03:59:45;;;;;;;13.87;8.90;;;9.30;99.90;;;;;;5011140;28;20265;-63
2021/11/15 04:02:13;;;;;;;12.30;8.60;;;9.40;99.90;;;;;;5011011;28;20747;-63
2021/11/15 04:04:50;;;;;;;14.70;8.93;;;9.40;99.90;;;;;;5011185;28;20207;-63
2021/11/15 04:07:26;;;;;;;12.80;8.70;;;9.40;99.90;;;;;;5011800;28;20207;-63
2021/11/15 04:09:58;;;;;;;12.60;8.37;;;9.50;99.90;;;;;;5011350;28;20303;-62
2021/11/15 04:12:26;;;;;;;10.93;8.30;;;9.50;99.90;;;;;;5011957;28;20235;-63
2021/11/15 04:14:53;;;;;;;11.87;8.30;;;9.40;99.90;;;;;;5013996;28;20218;-63
2021/11/15 04:17:23;;;;;;;14.17;9.30;;;9.50;99.90;;;;;;5011061;28;20203;-62
2021/11/15 04:19:52;;;;;;;13.40;8.50;;;9.50;99.90;;;;;;5014106;28;20211;-62
2021/11/15 04:22:18;;;;;;;12.70;8.90;;;9.50;99.90;;;;;;5013978;28;20227;-62
2021/11/15 04:24:45;;;;;;;13.33;9.03;;;9.40;99.90;;;;;;5013825;28;20211;-62
2021/11/15 04:27:12;;;;;;;11.67;8.30;;;9.40;99.90;;;;;;5013836;28;20206;-62
2021/11/15 04:29:39;;;;;;;11.67;8.83;;;9.50;99.90;;;;;;5013863;28;20264;-63
2021/11/15 04:32:07;;;;;;;12.50;9.13;;;9.50;99.90;;;;;;5013865;28;20231;-63
2021/11/15 04:34:35;;;;;;;13.03;9.50;;;9.50;99.90;;;;;;5013541;28;20223;-63
2021/11/15 04:37:03;;;;;;;13.43;8.57;;;9.50;99.90;;;;;;5014110;28;20215;-63
2021/11/15 04:39:30;;;;;;;12.07;8.30;;;9.60;99.90;;;;;;5014083;28;20269;-64
2021/11/15 04:41:56;;;;;;;14.93;8.83;;;9.60;99.90;;;;;;5014069;28;20234;-63
2021/11/15 04:44:23;;;;;;;13.80;8.70;;;9.60;99.90;;;;;;5013630;28;20798;-63
2021/11/15 04:46:50;;;;;;;12.50;8.43;;;9.60;99.90;;;;;;5013832;28;20211;-63
2021/11/15 04:49:17;;;;;;;11.53;8.10;;;9.60;99.90;;;;;;5013605;28;20261;-63
2021/11/15 04:51:45;;;;;;;12.80;7.77;;;9.50;99.90;;;;;;5013796;28;20230;-63
2021/11/15 04:54:13;;;;;;;11.50;8.20;;;9.50;99.90;;;;;;5013558;28;20227;-63
2021/11/15 04:56:40;;;;;;;13.73;8.30;;;9.40;99.90;;;;;;5014342;28;20298;-64
2021/11/15 04:59:07;;;;;;;11.27;7.67;;;9.30;99.90;;;;;;5014192;28;20214;-63
2021/11/15 05:01:34;;;;;;;11.07;7.60;;;9.10;99.90;;;;;;5013935;28;20615;-63
2021/11/15 05:04:00;;;;;;;13.13;7.63;;;9.10;99.90;;;;;;5013860;28;20202;-63
2021/11/15 05:06:27;;;;;;;11.23;7.63;;;9.20;99.90;;;;;;5014383;28;20210;-64
2021/11/15 05:08:56;;;;;;;10.07;7.33;;;9.20;99.90;;;;;;5014371;28;20642;-64
2021/11/15 05:11:22;;;;;;;10.23;7.33;;;9.20;99.90;;;;;;5013591;28;20621;-64
2021/11/15 05:13:49;;;;;;;12.13;7.80;;;9.10;99.90;;;;;;5013548;28;20226;-63
2021/11/15 05:16:16;;;;;;;10.53;7.63;;;9.20;99.90;;;;;;5013290;28;20621;-63
2021/11/15 05:18:43;;;;;;;10.93;7.17;;;9.20;99.90;;;;;;5013970;28;20214;-63
2021/11/15 05:21:10;;;;;;;11.40;7.80;;;9.10;99.90;;;;;;5013919;28;20640;-63
2021/11/15 05:23:37;;;;;;;9.60;7.17;;;9.20;99.90;;;;;;5014028;28;20226;-63
2021/11/15 05:26:05;;;;;;;11.37;7.73;;;9.20;99.90;;;;;;5013921;28;20234;-64
2021/11/15 05:28:31;;;;;;;11.53;7.43;;;9.30;99.90;;;;;;5012884;28;20211;-63
2021/11/15 05:30:58;;;;;;;9.63;7.13;;;9.30;99.90;;;;;;5012695;28;20214;-64
2021/11/15 05:33:25;;;;;;;11.83;7.87;;;9.30;99.90;;;;;;5012999;28;20258;-63
2021/11/15 05:35:52;;;;;;;10.97;7.47;;;9.30;99.90;;;;;;5013080;28;20207;-63
2021/11/15 05:38:18;;;;;;;10.77;7.57;;;9.20;99.90;;;;;;5014070;28;20233;-64
2021/11/15 05:40:45;;;;;;;9.07;6.97;;;9.20;99.90;;;;;;5013361;28;20210;-64
2021/11/15 05:43:13;;;;;;;11.23;7.27;;;9.10;99.90;;;;;;5013122;28;20206;-64
2021/11/15 05:45:40;;;;;;;10.57;7.30;;;9.10;99.90;;;;;;5012677;28;20674;-64
2021/11/15 05:48:07;;;;;;;11.57;7.77;;;9.00;99.90;;;;;;5012843;28;20226;-65
2021/11/15 05:50:33;;;;;;;11.77;7.80;;;8.90;99.90;;;;;;5013451;28;20214;-63
2021/11/15 05:53:00;;;;;;;12.60;7.80;;;9.00;99.90;;;;;;5012641;28;20231;-64
2021/11/15 05:55:28;;;;;;;10.67;7.17;;;9.20;99.90;;;;;;5012690;28;20229;-64
2021/11/15 05:57:55;;;;;;;11.67;7.50;;;9.10;99.90;;;;;;5012586;28;20207;-64
2021/11/15 06:00:26;;;;;;;11.90;7.90;;;9.10;99.90;;;;;;5013157;28;20219;-63
2021/11/15 06:02:53;;;;;;;11.17;7.40;;;9.10;99.90;;;;;;5012821;28;20738;-63
2021/11/15 06:05:20;;;;;;;11.43;7.60;;;9.10;99.90;;;;;;5012640;28;20211;-63
2021/11/15 06:07:47;;;;;;;11.93;7.97;;;9.00;99.90;;;;;;5013419;28;20213;-62
2021/11/15 06:10:14;;;;;;;10.20;7.27;;;9.10;99.90;;;;;;5013030;28;20210;-62
2021/11/15 06:12:41;;;;;;;13.13;7.97;;;9.00;99.90;;;;;;5012700;28;20222;-62
2021/11/15 06:15:11;;;;;;;10.70;7.53;;;9.00;99.90;;;;;;5013126;28;20276;-63
2021/11/15 06:17:39;;;;;;;10.60;7.50;;;9.10;99.90;;;;;;5013423;28;20211;-63
2021/11/15 06:20:08;;;;;;;10.57;7.20;;;9.20;99.90;;;;;;5013446;28;20207;-64
2021/11/15 06:22:34;;;;;;;10.53;7.73;;;9.20;99.90;;;;;;5013173;28;20230;-63
2021/11/15 06:25:01;;;;;;;10.87;7.00;;;9.10;99.90;;;;;;5012702;28;20685;-63
2021/11/15 06:27:28;;;;;;;10.10;7.37;;;9.10;99.90;;;;;;5012712;28;20207;-63
2021/11/15 06:29:54;;;;;;;13.37;8.10;;;9.20;99.90;;;;;;5012132;28;20651;-62
2021/11/15 06:32:21;;;;;;;11.67;7.93;;;9.10;99.90;;;;;;5012727;28;20237;-63
2021/11/15 06:34:49;;;;;;;10.50;7.73;;;9.20;99.90;;;;;;5012449;28;20223;-63
2021/11/15 06:37:16;;;;;;;14.40;8.20;;;9.20;99.90;;;;;;5012596;28;20215;-62
2021/11/15 06:39:43;;;;;;;10.53;7.20;;;9.20;99.90;;;;;;5012506;28;20233;-62
2021/11/15 06:42:12;;;;;;;12.47;7.73;;;9.30;99.90;;;;;;5011364;28;20242;-62
2021/11/15 06:44:39;;;;;;;11.50;7.77;;;9.40;99.90;;;;;;5012078;28;20203;-62
2021/11/15 06:47:07;;;;;;;13.73;8.17;;;9.40;99.90;;;;;;5012348;28;20214;-63
2021/11/15 06:49:34;;;;;;;11.40;7.97;;;9.30;99.90;;;;;;5012058;28;20249;-63
2021/11/15 06:52:02;;;;;;;11.60;7.77;;;9.30;99.90;;;;;;5012052;28;20223;-62
2021/11/15 06:54:29;;;;;;;11.30;7.93;;;9.30;99.90;;;;;;5011334;28;20226;-62
2021/11/15 06:56:56;;;;;;;10.77;7.53;;;9.30;99.90;;;;;;5011586;28;20261;-62
2021/11/15 06:59:22;;;;;;;14.07;7.60;;;9.40;99.90;;;;;;5011688;28;20210;-63
2021/11/15 07:01:49;;;;;;;12.80;8.33;;;9.40;99.90;;;;;;5011934;28;20231;-62
2021/11/15 07:04:16;;;;;;;12.27;8.03;;;9.40;99.90;;;;;;5012052;28;20218;-63
2021/11/15 07:06:44;;;;;;;10.37;7.47;;;9.40;99.90;;;;;;5012313;28;20437;-63
2021/11/15 07:09:12;;;;;;;15.67;7.50;;;9.50;99.90;;;;;;5012495;28;20664;-64
2021/11/15 07:11:40;;;;;;;10.20;6.90;;;9.40;99.90;;;;;;5011854;28;20230;-62
2021/11/15 07:14:07;;;;;;;11.13;6.93;;;9.40;99.90;;;;;;5011908;28;20238;-62
2021/11/15 07:16:34;;;;;;;11.90;7.73;;;9.40;99.90;;;;;;5011889;28;20210;-63
2021/11/15 07:19:02;;;;;;;13.10;6.93;;;9.40;99.90;;;;;;5012021;28;20211;-62
2021/11/15 07:21:29;;;;;;;9.27;6.83;;;9.30;99.90;;;;;;5011350;28;20227;-63
2021/11/15 07:23:56;;;;;;;11.77;7.90;;;9.30;99.90;;;;;;5025130;28;20198;-61
2021/11/15 07:26:25;;;;;;;12.67;8.00;;;9.30;99.90;;;;;;5031206;28;20210;-62
2021/11/15 07:28:53;;;;;;;12.00;8.00;;;9.50;99.90;;;;;;5031359;28;20234;-61
2021/11/15 07:31:20;;;;;;;12.80;7.73;;;9.70;99.90;;;;;;5031392;28;20222;-61
2021/11/15 07:33:47;;;;;;;15.57;7.23;;;9.90;99.90;;;;;;5030498;28;20261;-62
2021/11/15 07:36:14;;;;;;;11.47;7.20;;;10.00;99.90;;;;;;5030927;28;20206;-63
2021/11/15 07:38:40;;;;;;;12.73;7.07;;;10.00;99.90;;;;;;5031996;28;20361;-65
2021/11/15 07:41:07;;;;;;;9.23;6.90;;;10.10;99.90;;;;;;5054792;23;20237;-63
2021/11/15 07:43:35;;;;;;;9.33;6.63;;;10.00;99.90;;;;;;5049883;28;20218;-61
2021/11/15 07:46:02;;;;;;;11.97;7.60;;;9.90;99.90;;;;;;5050763;28;20201;-61
2021/11/15 07:48:30;;;;;;;13.03;7.27;;;9.80;99.90;;;;;;5049992;28;20214;-61
2021/11/15 07:50:57;;;;;;;11.03;7.03;;;9.60;99.90;;;;;;5050674;28;20244;-60
2021/11/15 07:53:24;;;;;;;9.93;7.10;;;9.60;99.90;;;;;;5051907;28;20232;-61
2021/11/15 07:55:51;;;;;;;13.60;7.57;;;9.60;99.90;;;;;;5045656;28;20230;-61
2021/11/15 07:58:18;;;;;;;11.53;7.23;;;9.60;99.90;;;;;;5035333;28;20209;-61
2021/11/15 08:00:46;;;;;;;10.73;7.27;;;9.50;99.90;;;;;;5034826;28;20206;-63
2021/11/15 08:03:13;;;;;;;13.37;7.73;;;9.60;99.90;;;;;;5033960;28;20246;-66
2021/11/15 08:05:39;;;;;;;11.93;7.93;;;9.60;99.90;;;;;;5033690;28;20229;-62
2021/11/15 08:08:07;;;;;;;12.47;8.17;;;9.60;99.90;;;;;;5034072;28;20210;-62
2021/11/15 08:10:35;;;;;;;12.97;7.93;;;9.60;99.90;;;;;;5034117;28;20206;-62
2021/11/15 08:13:02;;;;;;;11.07;7.60;;;9.60;99.90;;;;;;5033801;28;20230;-62
2021/11/15 08:15:29;;;;;;;13.83;8.10;;;9.60;99.90;;;;;;5033864;28;20248;-62
2021/11/15 08:17:59;;;;;;;11.67;7.73;;;9.70;99.90;;;;;;5033739;28;20206;-64
2021/11/15 08:20:28;;;;;;;10.87;7.77;;;9.80;99.90;;;;;;5033966;28;20683;-60
2021/11/15 08:22:56;;;;;;;12.10;8.00;;;9.70;99.90;;;;;;5033714;28;20226;-61
2021/11/15 08:26:20;;;;;;;10.70;7.03;;;9.80;99.90;;;;;;5033852;28;20214;-61
2021/11/15 08:28:47;;;;;;;11.47;7.80;;;9.80;99.90;;;;;;5033414;28;20206;-61
2021/11/15 08:31:15;;;;;;;11.93;8.20;;;9.90;99.90;;;;;;5033635;28;20260;-60
2021/11/15 08:33:43;;;;;;;10.23;7.30;;;10.00;99.90;;;;;;5033366;28;20301;-61
2021/11/15 08:36:10;;;;;;;10.57;7.73;;;10.00;99.90;;;;;;5033711;28;20581;-61
2021/11/15 08:38:50;;;;;;;12.43;7.57;;;9.90;99.90;;;;;;5033537;28;20264;-61
2021/11/15 08:41:19;;;;;;;13.20;7.77;;;9.80;99.90;;;;;;5033225;28;20206;-60
2021/11/15 08:43:46;;;;;;;10.17;7.07;;;9.80;99.90;;;;;;5033617;28;20221;-61
2021/11/15 08:46:16;;;;;;;11.00;7.90;;;9.90;99.90;;;;;;5033775;28;20206;-61
2021/11/15 08:48:45;;;;;;;11.63;8.13;;;9.90;99.90;;;;;;5033467;28;20533;-61
2021/11/15 08:51:14;;;;;;;12.03;7.63;;;9.90;99.90;;;;;;5033491;28;20215;-61
2021/11/15 08:53:41;;;;;;;12.27;7.93;;;9.90;99.90;;;;;;5032945;28;20206;-60
2021/11/15 08:56:09;;;;;;;11.80;8.13;;;9.90;99.90;;;;;;5033065;28;20225;-61
2021/11/15 08:58:36;;;;;;;13.40;8.50;;;9.90;99.90;;;;;;5033268;28;20213;-60
2021/11/15 09:01:03;;;;;;;13.87;7.93;;;10.00;99.90;;;;;;5033531;28;20245;-61
2021/11/15 09:03:30;;;;;;;13.03;7.97;;;9.90;99.90;;;;;;5033188;28;20209;-61
2021/11/15 09:05:58;;;;;;;12.83;8.13;;;9.90;99.90;;;;;;5033056;28;20198;-60
2021/11/15 09:08:25;;;;;;;12.53;7.73;;;9.90;99.90;;;;;;5032777;28;20697;-60
2021/11/15 09:10:52;;;;;;;11.30;7.90;;;9.90;99.90;;;;;;5032650;28;20210;-60
2021/11/15 09:13:19;;;;;;;11.57;8.33;;;9.90;99.90;;;;;;5033020;28;20280;-61
2021/11/15 09:15:46;;;;;;;10.87;8.07;;;9.90;99.90;;;;;;5032821;28;20227;-60
2021/11/15 09:18:13;;;;;;;11.97;8.13;;;9.80;99.90;;;;;;5032744;28;20202;-61
2021/11/15 09:20:39;;;;;;;13.97;8.70;;;9.80;99.90;;;;;;5032795;28;20340;-61
2021/11/15 09:23:07;;;;;;;12.50;9.07;;;9.90;99.90;;;;;;5032883;28;20226;-61
2021/11/15 09:25:35;;;;;;;12.33;8.77;;;9.90;99.90;;;;;;5033003;28;20202;-61
2021/11/15 09:28:02;;;;;;;16.37;9.17;;;10.00;99.90;;;;;;5032824;28;20210;-60
2021/11/15 09:30:30;;;;;;;12.53;8.27;;;10.10;99.90;;;;;;5032993;28;20213;-60
2021/11/15 09:32:56;;;;;;;14.23;8.87;;;10.10;99.90;;;;;;5032532;28;20230;-60
2021/11/15 09:35:23;;;;;;;12.60;8.60;;;10.10;99.90;;;;;;5032447;28;20222;-61
2021/11/15 09:37:50;;;;;;;14.30;8.87;;;10.10;99.90;;;;;;5032190;28;20579;-61
2021/11/15 09:40:19;;;;;;;14.10;9.07;;;10.00;99.90;;;;;;5032365;28;20595;-61
2021/11/15 09:42:47;;;;;;;12.37;8.80;;;10.00;99.90;;;;;;5032316;28;20253;-61
2021/11/15 09:45:14;;;;;;;14.63;9.47;;;10.10;99.90;;;;;;5032620;28;20578;-61
2021/11/15 09:47:41;;;;;;;14.27;9.50;;;10.20;99.90;;;;;;5032104;28;20221;-59
2021/11/15 09:50:10;;;;;;;14.10;8.40;;;10.20;99.90;;;;;;5032201;28;20214;-61
2021/11/15 09:52:37;;;;;;;14.67;9.23;;;10.20;99.90;;;;;;5031826;28;20612;-60
2021/11/15 09:55:05;;;;;;;13.37;9.50;;;10.20;99.90;;;;;;5032100;28;20223;-61
2021/11/15 09:57:36;;;;;;;16.63;9.50;;;10.30;99.90;;;;;;5032215;28;20206;-61
2021/11/15 10:00:05;;;;;;;13.33;8.83;;;10.40;99.90;;;;;;5032033;28;20225;-61
2021/11/15 10:02:31;;;;;;;16.80;8.70;;;10.30;99.90;;;;;;5031791;28;20265;-60
2021/11/15 10:04:58;;;;;;;17.23;10.27;;;10.40;99.90;;;;;;5031991;28;20590;-61
2021/11/15 10:07:43;;;;;;;13.23;8.90;;;10.40;99.90;;;;;;5031913;28;20217;-59
2021/11/15 10:10:34;;;;;;;13.77;8.87;;;10.40;99.90;;;;;;5031750;28;20242;-60
2021/11/15 10:13:33;;;;;;;12.77;8.90;;;10.30;99.90;;;;;;5032066;28;20837;-60
2021/11/15 10:16:04;;;;;;;15.17;9.43;;;10.30;99.90;;;;;;5031220;28;20225;-60
2021/11/15 10:18:36;;;;;;;12.67;9.23;;;10.30;99.90;;;;;;5031722;28;20210;-60
2021/11/15 10:21:06;;;;;;;14.33;9.37;;;10.30;99.90;;;;;;5031658;28;20214;-60
2021/11/15 10:23:37;;;;;;;14.23;9.43;;;10.30;99.90;;;;;;5031683;28;20309;-60
2021/11/15 10:26:14;;;;;;;13.70;9.03;;;10.30;99.90;;;;;;5031953;28;20230;-60
2021/11/15 10:28:43;;;;;;;14.17;9.03;;;10.30;99.90;;;;;;5031395;28;20663;-60
2021/11/15 10:31:26;;;;;;;13.80;8.83;;;10.30;99.90;;;;;;5031737;28;20445;-61
2021/11/15 10:33:53;;;;;;;15.00;9.17;;;10.20;99.90;;;;;;5031276;28;20210;-61
2021/11/15 10:36:19;;;;;;;14.67;9.30;;;10.30;99.90;;;;;;5031466;28;20226;-60
2021/11/15 10:38:50;;;;;;;14.57;9.50;;;10.40;99.90;;;;;;5031459;28;20616;-61
2021/11/15 10:41:20;;;;;;;14.60;9.30;;;10.40;99.90;;;;;;5031110;28;20206;-60
2021/11/15 10:43:58;;;;;;;12.90;9.23;;;10.40;99.90;;;;;;5031354;28;20214;-61
2021/11/15 10:46:33;;;;;;;14.47;9.50;;;10.50;99.90;;;;;;5031580;28;20186;-61
2021/11/15 10:49:01;;;;;;;14.90;10.20;;;10.50;99.90;;;;;;5031361;28;20213;-63
2021/11/15 10:51:48;;;;;;;15.10;9.70;;;10.60;99.90;;;;;;5031173;28;20230;-63
2021/11/15 10:54:47;;;;;;;16.00;10.03;;;10.70;99.90;;;;;;5030791;28;20213;-61
2021/11/15 10:57:23;;;;;;;16.67;10.57;;;10.80;99.90;;;;;;5031565;28;20264;-61
2021/11/15 11:00:16;;;;;;;14.50;9.80;;;10.90;99.90;;;;;;5030762;28;20614;-61
2021/11/15 11:02:45;;;;;;;14.30;9.63;;;10.80;99.90;;;;;;5031199;28;20321;-61
2021/11/15 11:05:14;;;;;;;16.70;9.97;;;10.80;99.90;;;;;;5030912;28;20684;-61
2021/11/15 11:07:43;;;;;;;15.13;9.97;;;10.90;99.90;;;;;;5031150;28;20584;-61
2021/11/15 11:10:12;;;;;;;14.80;10.07;;;10.80;99.90;;;;;;5031046;28;20217;-60
2021/11/15 11:12:41;;;;;;;15.43;10.03;;;10.90;99.90;;;;;;5030679;28;20222;-62
2021/11/15 11:15:29;;;;;;;14.03;9.57;;;10.90;99.90;;;;;;5030465;28;20226;-60
2021/11/15 11:18:13;;;;;;;15.80;9.40;;;10.90;99.90;;;;;;5030898;28;20256;-61
2021/11/15 11:26:59;;;;;;;16.13;11.03;;;10.80;99.90;;;;;;5030804;28;20232;-62
2021/11/15 11:29:30;;;;;;;14.30;10.07;;;10.90;99.90;;;;;;5034677;28;20212;-62
2021/11/15 11:32:05;;;;;;;15.03;9.57;;;10.80;99.90;;;;;;5034820;28;20237;-61
2021/11/15 11:34:32;;;;;;;13.17;9.73;;;10.80;99.90;;;;;;5034765;28;20232;-62
2021/11/15 11:36:59;;;;;;;14.30;9.47;;;10.70;99.90;;;;;;5034872;28;20233;-60
2021/11/15 11:39:26;;;;;;;15.13;10.87;;;10.70;99.90;;;;;;5031608;28;21005;-61
2021/11/15 11:41:58;;;;;;;14.97;10.17;;;10.80;99.90;;;;;;5034232;28;20653;-61
2021/11/15 11:44:26;;;;;;;14.63;9.67;;;10.70;99.90;;;;;;5034205;28;20289;-60
2021/11/15 11:46:54;;;;;;;15.47;10.70;;;10.70;99.90;;;;;;5034792;28;20210;-62
2021/11/15 11:49:25;;;;;;;16.30;10.47;;;10.80;99.90;;;;;;5034062;28;20396;-64
2021/11/15 11:51:57;;;;;;;13.23;9.33;;;10.70;99.90;;;;;;5034470;28;20241;-62
2021/11/15 11:54:28;;;;;;;13.13;9.63;;;10.70;99.90;;;;;;5034152;28;20272;-63
2021/11/15 11:57:01;;;;;;;14.70;9.53;;;10.80;99.90;;;;;;5034120;28;20698;-63
2021/11/15 11:59:28;;;;;;;14.93;10.10;;;10.80;99.90;;;;;;5034216;28;20217;-64
2021/11/15 12:01:58;;;;;;;16.50;10.23;;;10.90;99.90;;;;;;5033896;28;20217;-61
2021/11/15 12:04:27;;;;;;;16.97;10.20;;;10.90;99.90;;;;;;5034100;28;20214;-61
2021/11/15 12:06:55;;;;;;;16.67;10.27;;;11.00;99.90;;;;;;5034060;28;20202;-61
2021/11/15 12:09:23;;;;;;;14.67;9.90;;;11.10;99.90;;;;;;5033749;28;20602;-60
2021/11/15 12:12:00;;;;;;;14.13;9.83;;;11.20;99.90;;;;;;5034071;28;20230;-61
2021/11/15 12:14:33;;;;;;;14.73;10.30;;;11.30;99.90;;;;;;5033719;28;20264;-60
2021/11/15 12:17:04;;;;;;;14.77;9.97;;;11.30;99.90;;;;;;5034052;28;20316;-61
2021/11/15 12:20:12;;;;;;;14.47;9.83;;;11.20;99.90;;;;;;5033819;28;20206;-61
2021/11/15 12:22:57;;;;;;;16.40;10.23;;;11.10;99.90;;;;;;5033974;28;20226;-61
2021/11/15 12:25:26;;;;;;;20.07;14.43;;;11.00;99.90;;;;;;5033777;28;20198;-60
2021/11/15 12:27:56;;;;;;;15.43;9.87;;;11.00;99.90;;;;;;5033723;28;20805;-61
2021/11/15 12:30:26;;;;;;;15.87;10.67;;;11.10;99.90;;;;;;5033828;28;20206;-60
2021/11/15 12:33:24;;;;;;;16.63;12.50;;;11.00;99.90;;;;;;5033863;28;20386;-60
2021/11/15 12:35:53;;;;;;;14.30;9.97;;;10.90;99.90;;;;;;5033811;28;20292;-60
2021/11/15 12:38:42;;;;;;;13.83;10.40;;;10.90;99.90;;;;;;5032963;28;20253;-60
2021/11/15 12:41:33;;;;;;;15.60;12.07;;;10.90;99.90;;;;;;5029824;28;20906;-61
2021/11/15 12:44:17;;;;;;;13.57;10.73;;;10.80;99.90;;;;;;5033185;28;20217;-62
2021/11/15 12:46:46;;;;;;;14.00;10.67;;;10.70;99.90;;;;;;5033484;28;20229;-63
2021/11/15 12:49:17;;;;;;;13.33;10.67;;;10.60;99.90;;;;;;5032925;28;20240;-63
2021/11/15 12:51:49;;;;;;;16.37;11.77;;;10.60;99.90;;;;;;5033185;28;20257;-63
2021/11/15 12:54:18;;;;;;;16.83;11.30;;;10.60;99.90;;;;;;5033049;28;20212;-63
2021/11/15 12:56:44;;;;;;;16.90;11.13;;;10.60;99.90;;;;;;5033443;28;20317;-63